sensor_id;sensor_type;location;lat;lon;timestamp;pressure;altitude;pressure_sealevel;temperature;humidity
11011;BME280;5558;42.702;23.178;2024-03-29T00:00:43;93448.81;;;10.48;68.68
11011;BME280;5558;42.702;23.178;2024-03-29T00:03:09;93457.28;;;10.50;69.48
11011;BME280;5558;42.702;23.178;2024-03-29T00:05:36;93446.19;;;10.38;70.33
11011;BME280;5558;42.702;23.178;2024-03-29T00:08:02;93449.13;;;10.26;70.89
11011;BME280;5558;42.702;23.178;2024-03-29T00:10:27;93449.09;;;10.36;67.90
11011;BME280;5558;42.702;23.178;2024-03-29T00:12:53;93463.38;;;10.35;68.88
11011;BME280;5558;42.702;23.178;2024-03-29T00:15:20;93458.34;;;10.44;68.20
11011;BME280;5558;42.702;23.178;2024-03-29T00:17:46;93478.72;;;10.53;66.99
11011;BME280;5558;42.702;23.178;2024-03-29T00:20:12;93468.66;;;10.45;67.41
11011;BME280;5558;42.702;23.178;2024-03-29T00:22:38;93469.72;;;10.44;68.02
11011;BME280;5558;42.702;23.178;2024-03-29T00:25:04;93471.88;;;10.27;69.31
11011;BME280;5558;42.702;23.178;2024-03-29T00:27:30;93478.97;;;10.07;71.35
11011;BME280;5558;42.702;23.178;2024-03-29T00:29:56;93485.06;;;10.02;72.80
11011;BME280;5558;42.702;23.178;2024-03-29T00:32:23;93490.91;;;9.89;74.26
11011;BME280;5558;42.702;23.178;2024-03-29T00:34:50;93477.69;;;9.74;76.01
11011;BME280;5558;42.702;23.178;2024-03-29T00:37:16;93468.94;;;9.73;75.04
11011;BME280;5558;42.702;23.178;2024-03-29T00:39:42;93477.94;;;9.82;76.58
11011;BME280;5558;42.702;23.178;2024-03-29T00:42:08;93479.78;;;9.82;77.06
11011;BME280;5558;42.702;23.178;2024-03-29T00:44:34;93476.06;;;9.78;75.93
11011;BME280;5558;42.702;23.178;2024-03-29T00:47:00;93478.19;;;9.81;74.68
11011;BME280;5558;42.702;23.178;2024-03-29T00:49:27;93488.25;;;9.89;74.06
11011;BME280;5558;42.702;23.178;2024-03-29T00:51:52;93488.25;;;9.94;73.65
11011;BME280;5558;42.702;23.178;2024-03-29T00:54:18;93476.06;;;9.88;73.45
11011;BME280;5558;42.702;23.178;2024-03-29T00:56:44;93485.06;;;9.97;73.35
11011;BME280;5558;42.702;23.178;2024-03-29T00:59:10;93494.31;;;10.00;72.93
11011;BME280;5558;42.702;23.178;2024-03-29T01:01:35;93488.25;;;10.04;71.91
11011;BME280;5558;42.702;23.178;2024-03-29T01:04:01;93498.28;;;10.02;72.17
11011;BME280;5558;42.702;23.178;2024-03-29T01:06:28;93494.59;;;10.03;72.53
11011;BME280;5558;42.702;23.178;2024-03-29T01:08:54;93498.31;;;10.12;72.05
11011;BME280;5558;42.702;23.178;2024-03-29T01:11:20;93499.38;;;10.06;72.87
11011;BME280;5558;42.702;23.178;2024-03-29T01:13:45;93501.50;;;10.09;72.88
11011;BME280;5558;42.702;23.178;2024-03-29T01:16:11;93491.16;;;10.08;74.14
11011;BME280;5558;42.702;23.178;2024-03-29T01:18:37;93494.09;;;10.11;73.33
11011;BME280;5558;42.702;23.178;2024-03-29T01:21:03;93495.91;;;10.01;73.43
11011;BME280;5558;42.702;23.178;2024-03-29T01:23:30;93499.09;;;10.08;72.98
11011;BME280;5558;42.702;23.178;2024-03-29T01:25:55;93498.28;;;10.07;73.44
11011;BME280;5558;42.702;23.178;2024-03-29T01:28:21;93499.38;;;10.16;72.33
11011;BME280;5558;42.702;23.178;2024-03-29T01:30:51;93499.13;;;10.13;72.20
11011;BME280;5558;42.702;23.178;2024-03-29T01:33:17;93488.53;;;10.13;72.89
11011;BME280;5558;42.702;23.178;2024-03-29T01:35:43;93493.28;;;9.91;75.92
11011;BME280;5558;42.702;23.178;2024-03-29T01:38:09;93495.38;;;9.78;76.73
11011;BME280;5558;42.702;23.178;2024-03-29T01:40:36;93494.84;;;9.76;77.20
11011;BME280;5558;42.702;23.178;2024-03-29T01:43:02;93489.00;;;9.69;79.75
11011;BME280;5558;42.702;23.178;2024-03-29T01:45:29;93491.66;;;9.95;74.03
11011;BME280;5558;42.702;23.178;2024-03-29T01:47:56;93497.78;;;10.10;73.76
11011;BME280;5558;42.702;23.178;2024-03-29T01:50:23;93502.31;;;10.15;73.46
11011;BME280;5558;42.702;23.178;2024-03-29T01:52:50;93509.16;;;10.26;73.82
11011;BME280;5558;42.702;23.178;2024-03-29T01:55:17;93506.25;;;10.27;73.75
11011;BME280;5558;42.702;23.178;2024-03-29T01:57:45;93506.00;;;10.14;73.69
11011;BME280;5558;42.702;23.178;2024-03-29T02:00:12;93514.97;;;9.93;76.57
11011;BME280;5558;42.702;23.178;2024-03-29T02:02:39;93521.00;;;9.93;76.58
11011;BME280;5558;42.702;23.178;2024-03-29T02:05:06;93531.59;;;9.93;76.27
11011;BME280;5558;42.702;23.178;2024-03-29T02:07:32;93550.34;;;9.92;77.15
11011;BME280;5558;42.702;23.178;2024-03-29T02:10:00;93549.06;;;9.89;78.01
11011;BME280;5558;42.702;23.178;2024-03-29T02:12:27;93550.38;;;10.02;78.02
11011;BME280;5558;42.702;23.178;2024-03-29T02:14:55;93558.28;;;9.92;78.12
11011;BME280;5558;42.702;23.178;2024-03-29T02:17:23;93572.56;;;9.80;78.87
11011;BME280;5558;42.702;23.178;2024-03-29T02:19:49;93590.22;;;9.70;80.35
11011;BME280;5558;42.702;23.178;2024-03-29T02:22:17;93582.81;;;9.62;80.18
11011;BME280;5558;42.702;23.178;2024-03-29T02:24:47;93584.91;;;9.60;80.58
11011;BME280;5558;42.702;23.178;2024-03-29T02:27:14;93586.72;;;9.49;81.73
11011;BME280;5558;42.702;23.178;2024-03-29T02:29:41;93598.59;;;9.42;83.24
11011;BME280;5558;42.702;23.178;2024-03-29T02:32:07;93609.94;;;9.42;82.34
11011;BME280;5558;42.702;23.178;2024-03-29T02:34:34;93607.28;;;9.37;83.16
11011;BME280;5558;42.702;23.178;2024-03-29T02:37:01;93615.19;;;9.37;82.74
11011;BME280;5558;42.702;23.178;2024-03-29T02:39:28;93615.50;;;9.46;82.04
11011;BME280;5558;42.702;23.178;2024-03-29T02:41:56;93616.31;;;9.51;82.24
11011;BME280;5558;42.702;23.178;2024-03-29T02:44:23;93614.44;;;9.42;83.54
11011;BME280;5558;42.702;23.178;2024-03-29T02:46:50;93621.31;;;9.43;83.99
11011;BME280;5558;42.702;23.178;2024-03-29T02:49:16;93633.75;;;9.52;82.50
11011;BME280;5558;42.702;23.178;2024-03-29T02:51:42;93630.34;;;9.52;84.31
11011;BME280;5558;42.702;23.178;2024-03-29T02:54:08;93644.06;;;9.54;84.22
11011;BME280;5558;42.702;23.178;2024-03-29T02:56:35;93641.16;;;9.50;84.01
11011;BME280;5558;42.702;23.178;2024-03-29T02:59:02;93631.06;;;9.37;84.58
11011;BME280;5558;42.702;23.178;2024-03-29T03:01:29;93639.03;;;9.47;83.78
11011;BME280;5558;42.702;23.178;2024-03-29T03:03:54;93641.34;;;9.39;84.88
11011;BME280;5558;42.702;23.178;2024-03-29T03:06:21;93647.41;;;9.29;86.56
11011;BME280;5558;42.702;23.178;2024-03-29T03:08:47;93645.22;;;9.16;89.04
11011;BME280;5558;42.702;23.178;2024-03-29T03:11:32;93654.91;;;9.06;91.58
11011;BME280;5558;42.702;23.178;2024-03-29T03:13:59;93652.72;;;8.93;91.01
11011;BME280;5558;42.702;23.178;2024-03-29T03:16:27;93666.88;;;8.82;92.20
11011;BME280;5558;42.702;23.178;2024-03-29T03:18:53;93669.78;;;8.80;95.77
11011;BME280;5558;42.702;23.178;2024-03-29T03:21:20;93681.72;;;8.56;100.00
11011;BME280;5558;42.702;23.178;2024-03-29T03:23:46;93666.22;;;8.33;100.00
11011;BME280;5558;42.702;23.178;2024-03-29T03:26:13;93669.88;;;8.27;100.00
11011;BME280;5558;42.702;23.178;2024-03-29T03:28:38;93682.38;;;8.15;100.00
11011;BME280;5558;42.702;23.178;2024-03-29T03:31:05;93688.63;;;8.09;100.00
11011;BME280;5558;42.702;23.178;2024-03-29T03:33:34;93675.53;;;7.92;100.00
11011;BME280;5558;42.702;23.178;2024-03-29T03:36:00;93684.75;;;7.90;100.00
11011;BME280;5558;42.702;23.178;2024-03-29T03:38:26;93693.69;;;7.89;100.00
11011;BME280;5558;42.702;23.178;2024-03-29T03:40:53;93692.66;;;7.90;100.00
11011;BME280;5558;42.702;23.178;2024-03-29T03:43:18;93692.97;;;7.98;100.00
11011;BME280;5558;42.702;23.178;2024-03-29T03:45:45;93692.75;;;8.00;100.00
11011;BME280;5558;42.702;23.178;2024-03-29T03:48:11;93711.78;;;8.07;100.00
11011;BME280;5558;42.702;23.178;2024-03-29T03:50:39;93717.38;;;8.10;100.00
11011;BME280;5558;42.702;23.178;2024-03-29T03:53:06;93706.28;;;8.08;100.00
11011;BME280;5558;42.702;23.178;2024-03-29T03:55:35;93716.41;;;8.16;100.00
11011;BME280;5558;42.702;23.178;2024-03-29T03:58:03;93715.34;;;8.17;100.00
11011;BME280;5558;42.702;23.178;2024-03-29T04:00:28;93716.69;;;8.20;100.00
11011;BME280;5558;42.702;23.178;2024-03-29T04:02:55;93713.50;;;8.18;100.00
11011;BME280;5558;42.702;23.178;2024-03-29T04:05:22;93715.88;;;8.19;100.00
11011;BME280;5558;42.702;23.178;2024-03-29T04:07:51;93721.81;;;8.26;100.00
11011;BME280;5558;42.702;23.178;2024-03-29T04:10:17;93734.53;;;8.34;100.00
11011;BME280;5558;42.702;23.178;2024-03-29T04:12:44;93730.38;;;8.38;100.00
11011;BME280;5558;42.702;23.178;2024-03-29T04:15:09;93735.94;;;8.42;100.00
11011;BME280;5558;42.702;23.178;2024-03-29T04:17:36;93751.25;;;8.45;100.00
11011;BME280;5558;42.702;23.178;2024-03-29T04:20:02;93752.94;;;8.56;100.00
11011;BME280;5558;42.702;23.178;2024-03-29T04:22:30;93751.66;;;8.32;100.00
11011;BME280;5558;42.702;23.178;2024-03-29T04:24:57;93749.31;;;8.14;100.00
11011;BME280;5558;42.702;23.178;2024-03-29T04:27:25;93751.94;;;7.92;100.00
11011;BME280;5558;42.702;23.178;2024-03-29T04:29:51;93751.03;;;7.82;100.00
11011;BME280;5558;42.702;23.178;2024-03-29T04:32:18;93758.44;;;7.85;100.00
11011;BME280;5558;42.702;23.178;2024-03-29T04:34:47;93773.91;;;7.98;100.00
11011;BME280;5558;42.702;23.178;2024-03-29T04:37:14;93766.91;;;8.08;100.00
11011;BME280;5558;42.702;23.178;2024-03-29T04:39:42;93779.56;;;8.54;100.00
11011;BME280;5558;42.702;23.178;2024-03-29T04:42:10;93772.78;;;9.58;99.34
11011;BME280;5558;42.702;23.178;2024-03-29T04:44:37;93777.50;;;10.75;85.96
11011;BME280;5558;42.702;23.178;2024-03-29T04:47:04;93779.84;;;12.12;71.78
11011;BME280;5558;42.702;23.178;2024-03-29T04:49:30;93795.00;;;13.53;61.91
11011;BME280;5558;42.702;23.178;2024-03-29T04:52:00;93796.22;;;14.88;55.90
11011;BME280;5558;42.702;23.178;2024-03-29T04:54:27;93794.25;;;16.27;50.81
11011;BME280;5558;42.702;23.178;2024-03-29T04:56:53;93793.13;;;17.59;46.38
11011;BME280;5558;42.702;23.178;2024-03-29T04:59:21;93787.41;;;18.66;43.44
11011;BME280;5558;42.702;23.178;2024-03-29T05:01:49;93790.28;;;19.68;40.73
11011;BME280;5558;42.702;23.178;2024-03-29T05:04:18;93802.34;;;20.80;38.56
11011;BME280;5558;42.702;23.178;2024-03-29T05:06:50;93807.94;;;21.74;36.59
11011;BME280;5558;42.702;23.178;2024-03-29T05:09:17;93808.19;;;22.67;34.73
11011;BME280;5558;42.702;23.178;2024-03-29T05:11:44;93806.91;;;23.61;32.57
11011;BME280;5558;42.702;23.178;2024-03-29T05:14:11;93823.41;;;24.51;31.43
11011;BME280;5558;42.702;23.178;2024-03-29T05:16:40;93826.25;;;25.48;29.89
11011;BME280;5558;42.702;23.178;2024-03-29T05:19:07;93830.66;;;26.25;29.01
11011;BME280;5558;42.702;23.178;2024-03-29T05:21:34;93836.06;;;27.05;27.91
11011;BME280;5558;42.702;23.178;2024-03-29T05:24:00;93837.56;;;27.74;27.10
11011;BME280;5558;42.702;23.178;2024-03-29T05:26:27;93835.41;;;27.87;26.36
11011;BME280;5558;42.702;23.178;2024-03-29T05:28:54;93841.44;;;28.29;25.79
11011;BME280;5558;42.702;23.178;2024-03-29T05:31:23;93847.00;;;28.69;25.05
11011;BME280;5558;42.702;23.178;2024-03-29T05:33:51;93847.38;;;29.08;24.94
11011;BME280;5558;42.702;23.178;2024-03-29T05:36:18;93851.94;;;29.33;24.44
11011;BME280;5558;42.702;23.178;2024-03-29T05:38:45;93843.13;;;29.54;24.12
11011;BME280;5558;42.702;23.178;2024-03-29T05:41:12;93848.56;;;30.01;23.46
11011;BME280;5558;42.702;23.178;2024-03-29T05:43:38;93850.25;;;30.23;23.66
11011;BME280;5558;42.702;23.178;2024-03-29T05:46:05;93856.00;;;30.83;22.36
11011;BME280;5558;42.702;23.178;2024-03-29T05:48:32;93864.28;;;31.18;22.44
11011;BME280;5558;42.702;23.178;2024-03-29T05:51:00;93863.16;;;31.65;21.52
11011;BME280;5558;42.702;23.178;2024-03-29T05:53:27;93860.03;;;31.91;20.63
11011;BME280;5558;42.702;23.178;2024-03-29T05:55:54;93860.00;;;32.15;20.51
11011;BME280;5558;42.702;23.178;2024-03-29T05:58:21;93869.41;;;32.11;19.86
11011;BME280;5558;42.702;23.178;2024-03-29T06:00:48;93866.22;;;32.30;19.61
11011;BME280;5558;42.702;23.178;2024-03-29T06:03:14;93871.38;;;32.00;20.19
11011;BME280;5558;42.702;23.178;2024-03-29T06:05:41;93885.38;;;31.25;20.14
11011;BME280;5558;42.702;23.178;2024-03-29T06:08:09;93881.88;;;31.17;20.34
11011;BME280;5558;42.702;23.178;2024-03-29T06:10:36;93879.97;;;31.60;20.48
11011;BME280;5558;42.702;23.178;2024-03-29T06:13:03;93874.50;;;31.39;20.47
11011;BME280;5558;42.702;23.178;2024-03-29T06:15:35;93872.16;;;31.41;20.35
11011;BME280;5558;42.702;23.178;2024-03-29T06:18:19;93867.00;;;31.15;20.56
11011;BME280;5558;42.702;23.178;2024-03-29T06:20:46;93885.84;;;31.41;19.97
11011;BME280;5558;42.702;23.178;2024-03-29T06:23:14;93884.22;;;31.29;20.65
11011;BME280;5558;42.702;23.178;2024-03-29T06:25:41;93879.72;;;30.68;20.96
11011;BME280;5558;42.702;23.178;2024-03-29T06:28:08;93877.66;;;29.79;21.46
11011;BME280;5558;42.702;23.178;2024-03-29T06:30:35;93877.09;;;29.16;21.95
11011;BME280;5558;42.702;23.178;2024-03-29T06:33:01;93879.47;;;29.21;22.05
11011;BME280;5558;42.702;23.178;2024-03-29T06:35:29;93877.63;;;28.29;22.82
11011;BME280;5558;42.702;23.178;2024-03-29T06:37:56;93879.91;;;27.98;23.24
11011;BME280;5558;42.702;23.178;2024-03-29T06:40:24;93872.00;;;28.15;23.44
11011;BME280;5558;42.702;23.178;2024-03-29T06:42:51;93871.38;;;27.99;23.21
11011;BME280;5558;42.702;23.178;2024-03-29T06:45:18;93868.28;;;28.30;23.04
11011;BME280;5558;42.702;23.178;2024-03-29T06:47:45;93853.63;;;28.09;23.10
11011;BME280;5558;42.702;23.178;2024-03-29T06:50:10;93874.66;;;27.59;23.23
11011;BME280;5558;42.702;23.178;2024-03-29T06:52:37;93868.25;;;27.26;24.01
11011;BME280;5558;42.702;23.178;2024-03-29T06:55:05;93869.06;;;26.85;24.67
11011;BME280;5558;42.702;23.178;2024-03-29T06:57:33;93883.31;;;26.40;24.79
11011;BME280;5558;42.702;23.178;2024-03-29T07:00:01;93878.72;;;26.06;25.05
11011;BME280;5558;42.702;23.178;2024-03-29T07:02:29;93884.41;;;25.35;26.97
11011;BME280;5558;42.702;23.178;2024-03-29T07:04:55;93882.78;;;24.72;27.04
11011;BME280;5558;42.702;23.178;2024-03-29T07:07:22;93891.22;;;24.43;27.28
11011;BME280;5558;42.702;23.178;2024-03-29T07:09:49;93885.25;;;24.09;28.23
11011;BME280;5558;42.702;23.178;2024-03-29T07:12:16;93882.16;;;23.59;28.73
11011;BME280;5558;42.702;23.178;2024-03-29T07:14:44;93887.75;;;23.06;29.54
11011;BME280;5558;42.702;23.178;2024-03-29T07:17:11;93894.63;;;23.16;29.77
11011;BME280;5558;42.702;23.178;2024-03-29T07:19:38;93893.50;;;22.60;30.06
11011;BME280;5558;42.702;23.178;2024-03-29T07:22:04;93890.72;;;22.48;30.82
11011;BME280;5558;42.702;23.178;2024-03-29T07:24:31;93884.44;;;22.76;30.43
11011;BME280;5558;42.702;23.178;2024-03-29T07:26:58;93891.56;;;22.28;30.41
11011;BME280;5558;42.702;23.178;2024-03-29T07:29:24;93890.13;;;22.30;30.72
11011;BME280;5558;42.702;23.178;2024-03-29T07:31:52;93880.50;;;22.21;30.68
11011;BME280;5558;42.702;23.178;2024-03-29T07:34:19;93888.72;;;22.24;30.64
11011;BME280;5558;42.702;23.178;2024-03-29T07:36:46;93886.88;;;22.37;30.60
11011;BME280;5558;42.702;23.178;2024-03-29T07:39:13;93891.00;;;22.22;31.18
11011;BME280;5558;42.702;23.178;2024-03-29T07:41:39;93887.03;;;21.78;31.90
11011;BME280;5558;42.702;23.178;2024-03-29T07:44:06;93883.63;;;21.90;31.46
11011;BME280;5558;42.702;23.178;2024-03-29T07:46:34;93880.72;;;22.16;31.95
11011;BME280;5558;42.702;23.178;2024-03-29T07:49:03;93883.25;;;22.53;30.84
11011;BME280;5558;42.702;23.178;2024-03-29T07:51:29;93880.56;;;22.53;30.79
11011;BME280;5558;42.702;23.178;2024-03-29T07:53:56;93888.19;;;22.31;30.62
11011;BME280;5558;42.702;23.178;2024-03-29T07:56:23;93892.16;;;22.33;30.80
11011;BME280;5558;42.702;23.178;2024-03-29T07:58:51;93876.63;;;22.30;31.86
11011;BME280;5558;42.702;23.178;2024-03-29T08:01:19;93893.84;;;22.38;32.27
11011;BME280;5558;42.702;23.178;2024-03-29T08:03:47;93890.50;;;22.41;31.94
11011;BME280;5558;42.702;23.178;2024-03-29T08:06:15;93889.91;;;22.56;31.98
11011;BME280;5558;42.702;23.178;2024-03-29T08:08:43;93882.97;;;22.46;31.39
11011;BME280;5558;42.702;23.178;2024-03-29T08:11:10;93880.06;;;22.51;31.54
11011;BME280;5558;42.702;23.178;2024-03-29T08:13:38;93884.63;;;22.59;31.34
11011;BME280;5558;42.702;23.178;2024-03-29T08:16:05;93869.34;;;22.43;31.54
11011;BME280;5558;42.702;23.178;2024-03-29T08:18:32;93878.78;;;22.37;32.53
11011;BME280;5558;42.702;23.178;2024-03-29T08:20:59;93869.16;;;21.45;32.37
11011;BME280;5558;42.702;23.178;2024-03-29T08:23:27;93867.16;;;21.62;32.34
11011;BME280;5558;42.702;23.178;2024-03-29T08:25:54;93876.41;;;21.73;32.16
11011;BME280;5558;42.702;23.178;2024-03-29T08:28:21;93872.28;;;21.76;31.97
11011;BME280;5558;42.702;23.178;2024-03-29T08:30:57;93865.78;;;21.27;33.49
11011;BME280;5558;42.702;23.178;2024-03-29T08:33:24;93865.19;;;20.21;34.33
11011;BME280;5558;42.702;23.178;2024-03-29T08:35:51;93857.72;;;20.01;36.39
11011;BME280;5558;42.702;23.178;2024-03-29T08:38:17;93863.72;;;19.55;35.27
11011;BME280;5558;42.702;23.178;2024-03-29T08:40:45;93857.25;;;19.82;36.08
11011;BME280;5558;42.702;23.178;2024-03-29T08:43:13;93857.41;;;20.11;36.21
11011;BME280;5558;42.702;23.178;2024-03-29T08:45:41;93862.16;;;19.71;35.75
11011;BME280;5558;42.702;23.178;2024-03-29T08:48:07;93853.31;;;19.88;35.39
11011;BME280;5558;42.702;23.178;2024-03-29T08:50:35;93845.56;;;19.95;35.27
11011;BME280;5558;42.702;23.178;2024-03-29T08:53:02;93847.72;;;20.44;35.29
11011;BME280;5558;42.702;23.178;2024-03-29T08:55:29;93850.50;;;20.73;33.60
11011;BME280;5558;42.702;23.178;2024-03-29T08:57:58;93835.38;;;20.98;33.55
11011;BME280;5558;42.702;23.178;2024-03-29T09:00:24;93843.31;;;21.23;34.09
11011;BME280;5558;42.702;23.178;2024-03-29T09:02:51;93832.63;;;21.35;32.75
11011;BME280;5558;42.702;23.178;2024-03-29T09:05:18;93825.69;;;20.97;33.21
11011;BME280;5558;42.702;23.178;2024-03-29T09:07:45;93822.94;;;20.76;33.66
11011;BME280;5558;42.702;23.178;2024-03-29T09:10:13;93805.66;;;20.48;34.16
11011;BME280;5558;42.702;23.178;2024-03-29T09:12:39;93820.00;;;20.52;34.05
11011;BME280;5558;42.702;23.178;2024-03-29T09:15:08;93812.63;;;20.32;34.79
11011;BME280;5558;42.702;23.178;2024-03-29T09:17:38;93809.78;;;20.37;35.53
11011;BME280;5558;42.702;23.178;2024-03-29T09:20:06;93809.78;;;20.37;34.69
11011;BME280;5558;42.702;23.178;2024-03-29T09:22:33;93804.63;;;20.61;35.06
11011;BME280;5558;42.702;23.178;2024-03-29T09:25:00;93803.13;;;20.81;34.70
11011;BME280;5558;42.702;23.178;2024-03-29T09:27:27;93803.53;;;21.00;33.87
11011;BME280;5558;42.702;23.178;2024-03-29T09:29:55;93793.47;;;21.17;33.51
11011;BME280;5558;42.702;23.178;2024-03-29T09:32:23;93793.78;;;21.36;32.55
11011;BME280;5558;42.702;23.178;2024-03-29T09:34:50;93790.72;;;21.46;32.93
11011;BME280;5558;42.702;23.178;2024-03-29T09:37:17;93783.22;;;21.52;32.84
11011;BME280;5558;42.702;23.178;2024-03-29T09:39:45;93790.13;;;21.61;34.66
11011;BME280;5558;42.702;23.178;2024-03-29T09:42:16;93776.16;;;21.68;33.30
11011;BME280;5558;42.702;23.178;2024-03-29T09:44:44;93763.47;;;21.27;32.98
11011;BME280;5558;42.702;23.178;2024-03-29T09:47:14;93768.94;;;20.81;33.64
11011;BME280;5558;42.702;23.178;2024-03-29T09:49:44;93760.59;;;20.74;33.91
11011;BME280;5558;42.702;23.178;2024-03-29T09:52:13;93754.41;;;20.74;34.38
11011;BME280;5558;42.702;23.178;2024-03-29T09:54:40;93759.06;;;20.94;34.04
11011;BME280;5558;42.702;23.178;2024-03-29T09:57:07;93759.28;;;21.09;33.37
11011;BME280;5558;42.702;23.178;2024-03-29T09:59:34;93759.31;;;21.30;33.69
11011;BME280;5558;42.702;23.178;2024-03-29T10:02:07;93753.81;;;21.47;33.84
11011;BME280;5558;42.702;23.178;2024-03-29T10:04:38;93753.13;;;21.70;33.37
11011;BME280;5558;42.702;23.178;2024-03-29T10:07:07;93749.34;;;21.30;33.35
11011;BME280;5558;42.702;23.178;2024-03-29T10:09:35;93749.47;;;21.13;33.82
11011;BME280;5558;42.702;23.178;2024-03-29T10:12:02;93750.38;;;21.38;34.90
11011;BME280;5558;42.702;23.178;2024-03-29T10:14:30;93746.50;;;21.27;34.67
11011;BME280;5558;42.702;23.178;2024-03-29T10:16:57;93737.41;;;20.90;35.45
11011;BME280;5558;42.702;23.178;2024-03-29T10:19:24;93734.16;;;20.76;34.96
11011;BME280;5558;42.702;23.178;2024-03-29T10:21:50;93733.50;;;20.79;35.28
11011;BME280;5558;42.702;23.178;2024-03-29T10:24:19;93747.41;;;20.81;36.04
11011;BME280;5558;42.702;23.178;2024-03-29T10:26:46;93743.84;;;20.98;36.53
11011;BME280;5558;42.702;23.178;2024-03-29T10:29:13;93740.72;;;21.16;36.07
11011;BME280;5558;42.702;23.178;2024-03-29T10:31:40;93743.16;;;21.30;35.60
11011;BME280;5558;42.702;23.178;2024-03-29T10:34:06;93748.47;;;21.18;35.52
11011;BME280;5558;42.702;23.178;2024-03-29T10:36:34;93737.63;;;21.06;34.88
11011;BME280;5558;42.702;23.178;2024-03-29T10:39:02;93735.66;;;21.15;36.07
11011;BME280;5558;42.702;23.178;2024-03-29T10:41:39;93741.66;;;21.20;34.55
11011;BME280;5558;42.702;23.178;2024-03-29T10:44:09;93738.97;;;21.20;34.52
11011;BME280;5558;42.702;23.178;2024-03-29T10:46:37;93727.53;;;21.23;35.45
11011;BME280;5558;42.702;23.178;2024-03-29T10:49:06;93738.31;;;21.44;35.09
11011;BME280;5558;42.702;23.178;2024-03-29T10:51:36;93733.25;;;21.42;34.83
11011;BME280;5558;42.702;23.178;2024-03-29T10:54:05;93724.19;;;21.26;35.10
11011;BME280;5558;42.702;23.178;2024-03-29T10:56:33;93727.41;;;21.40;36.07
11011;BME280;5558;42.702;23.178;2024-03-29T10:59:08;93722.34;;;21.39;35.67
11011;BME280;5558;42.702;23.178;2024-03-29T11:01:41;93721.41;;;21.35;34.82
11011;BME280;5558;42.702;23.178;2024-03-29T11:04:13;93714.66;;;21.29;35.65
11011;BME280;5558;42.702;23.178;2024-03-29T11:06:43;93717.44;;;21.41;32.94
11011;BME280;5558;42.702;23.178;2024-03-29T11:09:13;93721.19;;;21.60;32.25
11011;BME280;5558;42.702;23.178;2024-03-29T11:11:44;93722.81;;;21.73;32.00
11011;BME280;5558;42.702;23.178;2024-03-29T11:14:18;93709.56;;;21.68;33.94
11011;BME280;5558;42.702;23.178;2024-03-29T11:16:46;93718.50;;;21.81;35.64
11011;BME280;5558;42.702;23.178;2024-03-29T11:19:16;93720.75;;;21.79;35.14
11011;BME280;5558;42.702;23.178;2024-03-29T11:21:43;93720.47;;;22.05;33.63
11011;BME280;5558;42.702;23.178;2024-03-29T11:24:13;93717.25;;;22.23;34.48
11011;BME280;5558;42.702;23.178;2024-03-29T11:26:44;93713.59;;;21.62;36.53
11011;BME280;5558;42.702;23.178;2024-03-29T11:29:19;93695.81;;;21.29;35.04
11011;BME280;5558;42.702;23.178;2024-03-29T11:31:46;93714.00;;;21.52;35.88
11011;BME280;5558;42.702;23.178;2024-03-29T11:34:18;93706.19;;;21.39;36.95
11011;BME280;5558;42.702;23.178;2024-03-29T11:36:45;93710.44;;;21.40;35.75
11011;BME280;5558;42.702;23.178;2024-03-29T11:39:20;93704.16;;;21.68;36.55
11011;BME280;5558;42.702;23.178;2024-03-29T11:41:47;93702.81;;;21.83;31.35
11011;BME280;5558;42.702;23.178;2024-03-29T11:44:14;93712.81;;;21.95;30.06
11011;BME280;5558;42.702;23.178;2024-03-29T11:46:43;93707.88;;;21.97;28.71
11011;BME280;5558;42.702;23.178;2024-03-29T11:49:10;93698.47;;;22.15;30.93
11011;BME280;5558;42.702;23.178;2024-03-29T11:51:37;93703.91;;;22.27;31.38
11011;BME280;5558;42.702;23.178;2024-03-29T11:54:03;93700.41;;;22.38;29.00
11011;BME280;5558;42.702;23.178;2024-03-29T11:56:30;93697.28;;;22.48;29.31
11011;BME280;5558;42.702;23.178;2024-03-29T11:58:57;93699.97;;;22.48;29.45
11011;BME280;5558;42.702;23.178;2024-03-29T12:01:26;93681.25;;;22.64;29.76
11011;BME280;5558;42.702;23.178;2024-03-29T12:03:55;93679.97;;;22.37;32.03
11011;BME280;5558;42.702;23.178;2024-03-29T12:06:22;93683.25;;;22.55;32.59
11011;BME280;5558;42.702;23.178;2024-03-29T12:08:49;93683.91;;;22.52;32.22
11011;BME280;5558;42.702;23.178;2024-03-29T12:11:18;93688.28;;;22.20;33.41
11011;BME280;5558;42.702;23.178;2024-03-29T12:13:45;93685.72;;;22.36;31.23
11011;BME280;5558;42.702;23.178;2024-03-29T12:16:12;93696.97;;;22.62;30.65
11011;BME280;5558;42.702;23.178;2024-03-29T12:18:38;93692.66;;;22.85;30.65
11011;BME280;5558;42.702;23.178;2024-03-29T12:21:07;93684.22;;;22.98;30.20
11011;BME280;5558;42.702;23.178;2024-03-29T12:23:35;93689.69;;;23.14;29.28
11011;BME280;5558;42.702;23.178;2024-03-29T12:26:01;93682.84;;;23.17;29.43
11011;BME280;5558;42.702;23.178;2024-03-29T12:28:28;93679.47;;;23.20;28.54
11011;BME280;5558;42.702;23.178;2024-03-29T12:30:56;93675.50;;;23.17;29.00
11011;BME280;5558;42.702;23.178;2024-03-29T12:33:23;93688.13;;;23.25;28.02
11011;BME280;5558;42.702;23.178;2024-03-29T12:35:51;93685.19;;;23.30;28.20
11011;BME280;5558;42.702;23.178;2024-03-29T12:38:21;93690.25;;;23.32;28.60
11011;BME280;5558;42.702;23.178;2024-03-29T12:40:48;93680.56;;;23.31;26.84
11011;BME280;5558;42.702;23.178;2024-03-29T12:45:46;93678.63;;;23.43;28.36
11011;BME280;5558;42.702;23.178;2024-03-29T12:48:15;93680.19;;;23.44;27.47
11011;BME280;5558;42.702;23.178;2024-03-29T12:50:43;93669.19;;;23.37;26.78
11011;BME280;5558;42.702;23.178;2024-03-29T12:55:40;93677.09;;;23.30;26.48
11011;BME280;5558;42.702;23.178;2024-03-29T12:58:11;93672.56;;;23.22;25.93
11011;BME280;5558;42.702;23.178;2024-03-29T13:00:38;93674.84;;;23.20;26.81
11011;BME280;5558;42.702;23.178;2024-03-29T13:03:06;93666.31;;;23.18;26.55
11011;BME280;5558;42.702;23.178;2024-03-29T13:05:34;93663.34;;;23.23;26.05
11011;BME280;5558;42.702;23.178;2024-03-29T13:08:06;93659.66;;;23.16;25.14